sensor_id;sensor_type;location;lat;lon;timestamp;pressure;altitude;pressure_sealevel;temperature;humidity
18201;BME280;9226;47.858;9.594;2023-12-07T00:00:27;95469.41;;;3.37;79.67
18201;BME280;9226;47.858;9.594;2023-12-07T00:02:53;95470.22;;;3.38;79.59
18201;BME280;9226;47.858;9.594;2023-12-07T00:05:18;95466.69;;;3.39;79.56
18201;BME280;9226;47.858;9.594;2023-12-07T00:07:44;95472.09;;;3.36;79.68
18201;BME280;9226;47.858;9.594;2023-12-07T00:10:09;95466.00;;;3.35;79.66
18201;BME280;9226;47.858;9.594;2023-12-07T00:12:35;95469.56;;;3.34;79.72
18201;BME280;9226;47.858;9.594;2023-12-07T00:15:00;95477.66;;;3.30;79.97
18201;BME280;9226;47.858;9.594;2023-12-07T00:17:26;95469.78;;;3.30;79.90
18201;BME280;9226;47.858;9.594;2023-12-07T00:19:51;95472.50;;;3.28;79.83
18201;BME280;9226;47.858;9.594;2023-12-07T00:22:19;95481.19;;;3.29;79.68
18201;BME280;9226;47.858;9.594;2023-12-07T00:24:45;95480.34;;;3.28;79.57
18201;BME280;9226;47.858;9.594;2023-12-07T00:27:11;95482.38;;;3.23;79.58
18201;BME280;9226;47.858;9.594;2023-12-07T00:29:37;95485.91;;;3.22;79.55
18201;BME280;9226;47.858;9.594;2023-12-07T00:32:03;95492.22;;;3.18;79.48
18201;BME280;9226;47.858;9.594;2023-12-07T00:34:29;95492.31;;;3.16;79.30
18201;BME280;9226;47.858;9.594;2023-12-07T00:36:54;95494.25;;;3.13;79.40
18201;BME280;9226;47.858;9.594;2023-12-07T00:39:19;95497.34;;;3.03;79.94
18201;BME280;9226;47.858;9.594;2023-12-07T00:41:45;95503.38;;;3.05;79.52
18201;BME280;9226;47.858;9.594;2023-12-07T00:44:13;95499.88;;;3.05;79.60
18201;BME280;9226;47.858;9.594;2023-12-07T00:46:38;95504.34;;;3.03;79.56
18201;BME280;9226;47.858;9.594;2023-12-07T00:49:04;95502.56;;;3.03;79.34
18201;BME280;9226;47.858;9.594;2023-12-07T00:51:29;95502.88;;;2.97;79.47
18201;BME280;9226;47.858;9.594;2023-12-07T00:53:54;95502.13;;;2.95;79.67
18201;BME280;9226;47.858;9.594;2023-12-07T00:56:20;95505.69;;;2.94;79.59
18201;BME280;9226;47.858;9.594;2023-12-07T00:58:45;95506.59;;;2.93;79.92
18201;BME280;9226;47.858;9.594;2023-12-07T01:01:11;95497.03;;;2.92;80.02
18201;BME280;9226;47.858;9.594;2023-12-07T01:03:36;95501.22;;;2.96;79.82
18201;BME280;9226;47.858;9.594;2023-12-07T01:06:01;95499.34;;;2.98;79.77
18201;BME280;9226;47.858;9.594;2023-12-07T01:08:27;95494.09;;;2.98;79.76
18201;BME280;9226;47.858;9.594;2023-12-07T01:10:52;95503.69;;;2.99;79.58
18201;BME280;9226;47.858;9.594;2023-12-07T01:13:18;95498.59;;;2.96;79.72
18201;BME280;9226;47.858;9.594;2023-12-07T01:15:43;95503.81;;;2.96;79.61
18201;BME280;9226;47.858;9.594;2023-12-07T01:18:08;95501.22;;;2.96;79.60
18201;BME280;9226;47.858;9.594;2023-12-07T01:20:34;95503.81;;;2.96;79.68
18201;BME280;9226;47.858;9.594;2023-12-07T01:22:59;95502.19;;;2.94;79.94
18201;BME280;9226;47.858;9.594;2023-12-07T01:25:24;95505.03;;;2.89;79.73
18201;BME280;9226;47.858;9.594;2023-12-07T01:27:50;95508.75;;;2.85;80.33
18201;BME280;9226;47.858;9.594;2023-12-07T01:30:15;95510.88;;;2.77;81.05
18201;BME280;9226;47.858;9.594;2023-12-07T01:32:41;95514.38;;;2.77;80.83
18201;BME280;9226;47.858;9.594;2023-12-07T01:35:07;95517.00;;;2.77;80.60
18201;BME280;9226;47.858;9.594;2023-12-07T01:37:33;95513.59;;;2.75;80.63
18201;BME280;9226;47.858;9.594;2023-12-07T01:39:58;95524.06;;;2.75;80.81
18201;BME280;9226;47.858;9.594;2023-12-07T01:42:23;95527.78;;;2.71;80.98
18201;BME280;9226;47.858;9.594;2023-12-07T01:44:49;95520.13;;;2.66;80.86
18201;BME280;9226;47.858;9.594;2023-12-07T01:47:15;95527.31;;;2.63;80.39
18201;BME280;9226;47.858;9.594;2023-12-07T01:49:40;95524.03;;;2.58;80.62
18201;BME280;9226;47.858;9.594;2023-12-07T01:52:07;95520.66;;;2.56;80.36
18201;BME280;9226;47.858;9.594;2023-12-07T01:54:34;95511.63;;;2.44;80.74
18201;BME280;9226;47.858;9.594;2023-12-07T01:56:59;95531.78;;;2.42;80.30
18201;BME280;9226;47.858;9.594;2023-12-07T01:59:25;95534.69;;;2.35;80.32
18201;BME280;9226;47.858;9.594;2023-12-07T02:01:51;95532.41;;;2.29;80.07
18201;BME280;9226;47.858;9.594;2023-12-07T02:04:17;95539.59;;;2.24;80.28
18201;BME280;9226;47.858;9.594;2023-12-07T02:06:42;95532.03;;;2.18;80.42
18201;BME280;9226;47.858;9.594;2023-12-07T02:09:07;95532.22;;;2.13;80.53
18201;BME280;9226;47.858;9.594;2023-12-07T02:11:34;95530.84;;;2.06;80.62
18201;BME280;9226;47.858;9.594;2023-12-07T02:13:59;95533.66;;;2.02;80.82
18201;BME280;9226;47.858;9.594;2023-12-07T02:16:31;95534.78;;;1.96;80.88
18201;BME280;9226;47.858;9.594;2023-12-07T02:21:38;95542.34;;;1.83;81.26
18201;BME280;9226;47.858;9.594;2023-12-07T02:24:06;95535.38;;;1.84;81.09
18201;BME280;9226;47.858;9.594;2023-12-07T02:27:00;95539.94;;;1.78;81.39
18201;BME280;9226;47.858;9.594;2023-12-07T02:29:25;95537.38;;;1.77;81.29
18201;BME280;9226;47.858;9.594;2023-12-07T02:31:52;95546.25;;;1.74;81.20
18201;BME280;9226;47.858;9.594;2023-12-07T02:34:17;95551.53;;;1.73;81.35
18201;BME280;9226;47.858;9.594;2023-12-07T02:36:46;95549.84;;;1.72;81.49
18201;BME280;9226;47.858;9.594;2023-12-07T02:39:14;95553.34;;;1.71;81.64
18201;BME280;9226;47.858;9.594;2023-12-07T02:41:40;95553.34;;;1.71;81.80
18201;BME280;9226;47.858;9.594;2023-12-07T02:44:06;95553.34;;;1.71;81.82
18201;BME280;9226;47.858;9.594;2023-12-07T02:46:33;95553.34;;;1.71;81.85
18201;BME280;9226;47.858;9.594;2023-12-07T02:48:58;95550.75;;;1.71;82.06
18201;BME280;9226;47.858;9.594;2023-12-07T02:51:24;95552.44;;;1.72;82.01
18201;BME280;9226;47.858;9.594;2023-12-07T02:53:50;95538.59;;;1.70;82.01
18201;BME280;9226;47.858;9.594;2023-12-07T02:56:15;95539.44;;;1.70;81.76
18201;BME280;9226;47.858;9.594;2023-12-07T02:58:40;95533.38;;;1.70;81.34
18201;BME280;9226;47.858;9.594;2023-12-07T03:01:06;95535.97;;;1.70;81.18
18201;BME280;9226;47.858;9.594;2023-12-07T03:03:31;95544.88;;;1.66;81.18
18201;BME280;9226;47.858;9.594;2023-12-07T03:05:57;95536.25;;;1.63;81.20
18201;BME280;9226;47.858;9.594;2023-12-07T03:08:22;95536.38;;;1.60;81.21
18201;BME280;9226;47.858;9.594;2023-12-07T03:10:48;95534.75;;;1.58;81.05
18201;BME280;9226;47.858;9.594;2023-12-07T03:13:13;95533.91;;;1.57;80.99
18201;BME280;9226;47.858;9.594;2023-12-07T03:15:38;95538.38;;;1.55;80.92
18201;BME280;9226;47.858;9.594;2023-12-07T03:18:04;95540.25;;;1.52;80.90
18201;BME280;9226;47.858;9.594;2023-12-07T03:20:30;95545.53;;;1.50;80.84
18201;BME280;9226;47.858;9.594;2023-12-07T03:22:56;95550.00;;;1.48;80.83
18201;BME280;9226;47.858;9.594;2023-12-07T03:25:21;95546.59;;;1.46;81.11
18201;BME280;9226;47.858;9.594;2023-12-07T03:27:47;95543.22;;;1.44;81.27
18201;BME280;9226;47.858;9.594;2023-12-07T03:30:12;95542.41;;;1.42;81.26
18201;BME280;9226;47.858;9.594;2023-12-07T03:32:38;95536.22;;;1.44;81.27
18201;BME280;9226;47.858;9.594;2023-12-07T03:35:03;95537.06;;;1.45;81.40
18201;BME280;9226;47.858;9.594;2023-12-07T03:37:29;95541.38;;;1.46;81.23
18201;BME280;9226;47.858;9.594;2023-12-07T03:39:54;95544.19;;;1.41;81.66
18201;BME280;9226;47.858;9.594;2023-12-07T03:42:20;95546.31;;;1.13;83.99
18201;BME280;9226;47.858;9.594;2023-12-07T03:44:45;95541.91;;;1.13;83.26
18201;BME280;9226;47.858;9.594;2023-12-07T03:47:11;95546.09;;;1.17;82.83
18201;BME280;9226;47.858;9.594;2023-12-07T03:49:36;95546.81;;;1.21;82.90
18201;BME280;9226;47.858;9.594;2023-12-07T03:52:04;95542.44;;;1.21;83.06
18201;BME280;9226;47.858;9.594;2023-12-07T03:54:29;95542.44;;;1.21;83.08
18201;BME280;9226;47.858;9.594;2023-12-07T03:56:55;95539.75;;;1.23;82.55
18201;BME280;9226;47.858;9.594;2023-12-07T03:59:20;95543.25;;;1.23;82.85
18201;BME280;9226;47.858;9.594;2023-12-07T04:01:45;95536.38;;;1.21;82.99
18201;BME280;9226;47.858;9.594;2023-12-07T04:04:11;95540.63;;;1.23;82.45
18201;BME280;9226;47.858;9.594;2023-12-07T04:06:36;95538.00;;;1.23;82.36
18201;BME280;9226;47.858;9.594;2023-12-07T04:09:01;95543.06;;;1.26;82.21
18201;BME280;9226;47.858;9.594;2023-12-07T04:11:27;95539.56;;;1.27;82.24
18201;BME280;9226;47.858;9.594;2023-12-07T04:13:53;95542.16;;;1.27;81.95
18201;BME280;9226;47.858;9.594;2023-12-07T04:16:19;95543.25;;;1.23;82.01
18201;BME280;9226;47.858;9.594;2023-12-07T04:18:44;95539.81;;;1.21;81.91
18201;BME280;9226;47.858;9.594;2023-12-07T04:21:10;95546.88;;;1.19;81.63
18201;BME280;9226;47.858;9.594;2023-12-07T04:23:35;95551.34;;;1.17;81.29
18201;BME280;9226;47.858;9.594;2023-12-07T04:26:00;95557.59;;;1.13;81.44
18201;BME280;9226;47.858;9.594;2023-12-07T04:28:26;95556.94;;;1.08;81.64
18201;BME280;9226;47.858;9.594;2023-12-07T04:30:51;95559.63;;;1.06;81.63
18201;BME280;9226;47.858;9.594;2023-12-07T04:33:17;95551.84;;;1.05;81.56
18201;BME280;9226;47.858;9.594;2023-12-07T04:35:43;95556.22;;;1.04;81.35
18201;BME280;9226;47.858;9.594;2023-12-07T04:38:08;95550.25;;;1.01;81.37
18201;BME280;9226;47.858;9.594;2023-12-07T04:40:33;95554.72;;;0.99;81.37
18201;BME280;9226;47.858;9.594;2023-12-07T04:42:59;95557.44;;;0.96;81.33
18201;BME280;9226;47.858;9.594;2023-12-07T04:45:24;95565.47;;;0.91;80.93
18201;BME280;9226;47.858;9.594;2023-12-07T04:47:49;95559.72;;;0.83;81.35
18201;BME280;9226;47.858;9.594;2023-12-07T04:50:15;95560.81;;;0.77;81.04
18201;BME280;9226;47.858;9.594;2023-12-07T04:52:40;95552.19;;;0.75;81.02
18201;BME280;9226;47.858;9.594;2023-12-07T04:55:06;95557.53;;;0.72;81.03
18201;BME280;9226;47.858;9.594;2023-12-07T04:57:35;95557.78;;;0.66;81.18
18201;BME280;9226;47.858;9.594;2023-12-07T05:00:01;95553.63;;;0.62;81.53
18201;BME280;9226;47.858;9.594;2023-12-07T05:02:31;95562.34;;;0.61;81.07
18201;BME280;9226;47.858;9.594;2023-12-07T05:04:57;95563.38;;;0.57;81.16
18201;BME280;9226;47.858;9.594;2023-12-07T05:07:22;95562.72;;;0.51;81.25
18201;BME280;9226;47.858;9.594;2023-12-07T05:09:47;95556.72;;;0.49;80.99
18201;BME280;9226;47.858;9.594;2023-12-07T05:12:13;95554.22;;;0.46;80.90
18201;BME280;9226;47.858;9.594;2023-12-07T05:14:38;95557.78;;;0.44;81.03
18201;BME280;9226;47.858;9.594;2023-12-07T05:17:04;95561.47;;;0.40;80.93
18201;BME280;9226;47.858;9.594;2023-12-07T05:19:30;95558.97;;;0.37;80.92
18201;BME280;9226;47.858;9.594;2023-12-07T05:21:55;95566.84;;;0.35;80.83
18201;BME280;9226;47.858;9.594;2023-12-07T05:24:21;95560.94;;;0.30;81.01
18201;BME280;9226;47.858;9.594;2023-12-07T05:26:46;95562.16;;;0.21;81.40
18201;BME280;9226;47.858;9.594;2023-12-07T05:29:12;95568.41;;;0.17;81.39
18201;BME280;9226;47.858;9.594;2023-12-07T05:31:38;95565.84;;;0.15;81.29
18201;BME280;9226;47.858;9.594;2023-12-07T05:34:03;95560.88;;;0.09;81.40
18201;BME280;9226;47.858;9.594;2023-12-07T05:36:29;95562.03;;;0.02;81.53
18201;BME280;9226;47.858;9.594;2023-12-07T05:38:55;95564.63;;;0.02;81.57
18201;BME280;9226;47.858;9.594;2023-12-07T05:41:20;95562.13;;;-0.01;81.47
18201;BME280;9226;47.858;9.594;2023-12-07T05:43:45;95564.97;;;-0.07;81.61
18201;BME280;9226;47.858;9.594;2023-12-07T05:46:11;95563.53;;;-0.16;82.47
18201;BME280;9226;47.858;9.594;2023-12-07T05:48:36;95558.31;;;-0.16;81.93
18201;BME280;9226;47.858;9.594;2023-12-07T05:51:03;95574.09;;;-0.19;81.78
18201;BME280;9226;47.858;9.594;2023-12-07T05:53:28;95576.06;;;-0.26;82.04
18201;BME280;9226;47.858;9.594;2023-12-07T05:55:56;95569.19;;;-0.27;81.73
18201;BME280;9226;47.858;9.594;2023-12-07T05:58:22;95564.19;;;-0.33;82.17
18201;BME280;9226;47.858;9.594;2023-12-07T06:00:47;95564.19;;;-0.33;82.01
18201;BME280;9226;47.858;9.594;2023-12-07T06:03:13;95573.00;;;-0.37;81.98
18201;BME280;9226;47.858;9.594;2023-12-07T06:05:40;95566.09;;;-0.38;81.82
18201;BME280;9226;47.858;9.594;2023-12-07T06:08:05;95567.06;;;-0.41;82.01
18201;BME280;9226;47.858;9.594;2023-12-07T06:10:31;95562.84;;;-0.45;82.27
18201;BME280;9226;47.858;9.594;2023-12-07T06:12:58;95565.41;;;-0.43;81.85
18201;BME280;9226;47.858;9.594;2023-12-07T06:15:26;95566.38;;;-0.46;81.81
18201;BME280;9226;47.858;9.594;2023-12-07T06:17:51;95566.34;;;-0.44;81.44
18201;BME280;9226;47.858;9.594;2023-12-07T06:20:17;95568.22;;;-0.49;81.54
18201;BME280;9226;47.858;9.594;2023-12-07T06:22:43;95575.22;;;-0.50;81.41
18201;BME280;9226;47.858;9.594;2023-12-07T06:25:08;95570.16;;;-0.55;81.13
18201;BME280;9226;47.858;9.594;2023-12-07T06:27:37;95565.06;;;-0.58;81.13
18201;BME280;9226;47.858;9.594;2023-12-07T06:30:04;95564.22;;;-0.58;81.15
18201;BME280;9226;47.858;9.594;2023-12-07T06:32:31;95570.38;;;-0.61;81.17
18201;BME280;9226;47.858;9.594;2023-12-07T06:34:57;95563.44;;;-0.62;81.18
18201;BME280;9226;47.858;9.594;2023-12-07T06:37:22;95562.72;;;-0.65;81.22
18201;BME280;9226;47.858;9.594;2023-12-07T06:39:47;95563.66;;;-0.66;81.43
18201;BME280;9226;47.858;9.594;2023-12-07T06:42:14;95558.50;;;-0.68;81.58
18201;BME280;9226;47.858;9.594;2023-12-07T06:44:39;95556.66;;;-0.66;81.33
18201;BME280;9226;47.858;9.594;2023-12-07T06:47:05;95553.28;;;-0.68;81.87
18201;BME280;9226;47.858;9.594;2023-12-07T06:49:31;95563.59;;;-0.65;81.85
18201;BME280;9226;47.858;9.594;2023-12-07T06:51:56;95563.41;;;-0.60;81.70
18201;BME280;9226;47.858;9.594;2023-12-07T06:54:22;95565.84;;;-0.56;81.69
18201;BME280;9226;47.858;9.594;2023-12-07T06:56:47;95564.00;;;-0.52;81.64
18201;BME280;9226;47.858;9.594;2023-12-07T06:59:13;95557.81;;;-0.49;81.69
18201;BME280;9226;47.858;9.594;2023-12-07T07:01:38;95563.78;;;-0.46;81.70
18201;BME280;9226;47.858;9.594;2023-12-07T07:04:04;95568.03;;;-0.43;81.75
18201;BME280;9226;47.858;9.594;2023-12-07T07:06:29;95573.00;;;-0.37;81.58
18201;BME280;9226;47.858;9.594;2023-12-07T07:08:55;95565.88;;;-0.32;81.67
18201;BME280;9226;47.858;9.594;2023-12-07T07:11:20;95564.69;;;-0.23;81.85
18201;BME280;9226;47.858;9.594;2023-12-07T07:13:45;95566.91;;;-0.12;82.10
18201;BME280;9226;47.858;9.594;2023-12-07T07:16:11;95566.31;;;0.03;82.23
18201;BME280;9226;47.858;9.594;2023-12-07T07:18:39;95566.53;;;0.21;81.99
18201;BME280;9226;47.858;9.594;2023-12-07T07:21:06;95558.09;;;0.36;81.75
18201;BME280;9226;47.858;9.594;2023-12-07T07:23:31;95550.09;;;0.63;81.73
18201;BME280;9226;47.858;9.594;2023-12-07T07:25:56;95558.53;;;0.90;81.72
18201;BME280;9226;47.858;9.594;2023-12-07T07:28:22;95552.75;;;1.24;82.61
18201;BME280;9226;47.858;9.594;2023-12-07T07:30:47;95559.13;;;1.79;82.28
18201;BME280;9226;47.858;9.594;2023-12-07T07:33:13;95557.97;;;2.42;79.78
18201;BME280;9226;47.858;9.594;2023-12-07T07:35:38;95566.03;;;2.93;78.25
18201;BME280;9226;47.858;9.594;2023-12-07T07:38:03;95565.16;;;3.62;75.42
18201;BME280;9226;47.858;9.594;2023-12-07T07:40:29;95555.31;;;4.16;72.20
18201;BME280;9226;47.858;9.594;2023-12-07T07:42:54;95560.63;;;4.79;71.92
18201;BME280;9226;47.858;9.594;2023-12-07T07:45:19;95551.09;;;5.53;69.26
18201;BME280;9226;47.858;9.594;2023-12-07T07:47:45;95557.22;;;6.12;64.77
18201;BME280;9226;47.858;9.594;2023-12-07T07:50:10;95554.19;;;6.75;64.57
18201;BME280;9226;47.858;9.594;2023-12-07T07:52:36;95552.78;;;7.36;59.70
18201;BME280;9226;47.858;9.594;2023-12-07T07:55:03;95563.63;;;7.72;58.40
18201;BME280;9226;47.858;9.594;2023-12-07T07:57:30;95555.59;;;7.86;57.74
18201;BME280;9226;47.858;9.594;2023-12-07T07:59:56;95552.13;;;8.11;57.06
18201;BME280;9226;47.858;9.594;2023-12-07T08:02:22;95546.06;;;8.09;56.30
18201;BME280;9226;47.858;9.594;2023-12-07T08:04:47;95546.84;;;8.61;56.52
18201;BME280;9226;47.858;9.594;2023-12-07T08:07:13;95546.75;;;8.63;55.91
18201;BME280;9226;47.858;9.594;2023-12-07T08:09:38;95552.13;;;9.58;56.27
18201;BME280;9226;47.858;9.594;2023-12-07T08:12:05;95547.94;;;9.67;53.52
18201;BME280;9226;47.858;9.594;2023-12-07T08:14:31;95545.56;;;9.86;50.74
18201;BME280;9226;47.858;9.594;2023-12-07T08:16:56;95541.75;;;10.13;50.68
18201;BME280;9226;47.858;9.594;2023-12-07T08:19:22;95535.13;;;10.86;48.30
18201;BME280;9226;47.858;9.594;2023-12-07T08:21:47;95526.41;;;11.49;51.29
18201;BME280;9226;47.858;9.594;2023-12-07T08:24:12;95533.53;;;12.02;47.30
18201;BME280;9226;47.858;9.594;2023-12-07T08:26:38;95532.75;;;12.11;46.92
18201;BME280;9226;47.858;9.594;2023-12-07T08:29:04;95530.63;;;12.46;44.98
18201;BME280;9226;47.858;9.594;2023-12-07T08:31:30;95521.72;;;13.66;44.43
18201;BME280;9226;47.858;9.594;2023-12-07T08:33:55;95524.81;;;13.81;42.68
18201;BME280;9226;47.858;9.594;2023-12-07T08:36:21;95523.09;;;13.99;43.03
18201;BME280;9226;47.858;9.594;2023-12-07T08:38:46;95529.41;;;15.11;40.54
18201;BME280;9226;47.858;9.594;2023-12-07T08:41:11;95534.00;;;15.72;42.44
18201;BME280;9226;47.858;9.594;2023-12-07T08:43:37;95530.75;;;16.31;40.92
18201;BME280;9226;47.858;9.594;2023-12-07T08:46:02;95518.22;;;16.66;38.08
18201;BME280;9226;47.858;9.594;2023-12-07T08:48:29;95515.63;;;16.82;38.63
18201;BME280;9226;47.858;9.594;2023-12-07T08:50:54;95510.28;;;17.42;35.93
18201;BME280;9226;47.858;9.594;2023-12-07T08:53:20;95512.09;;;17.25;36.02
18201;BME280;9226;47.858;9.594;2023-12-07T08:55:45;95502.00;;;17.18;37.15
18201;BME280;9226;47.858;9.594;2023-12-07T08:58:10;95500.38;;;17.26;34.77
18201;BME280;9226;47.858;9.594;2023-12-07T09:00:37;95491.53;;;17.75;34.30
18201;BME280;9226;47.858;9.594;2023-12-07T09:03:03;95497.03;;;17.32;33.80
18201;BME280;9226;47.858;9.594;2023-12-07T09:05:29;95496.91;;;17.91;33.85
18201;BME280;9226;47.858;9.594;2023-12-07T09:07:55;95490.91;;;18.61;34.39
18201;BME280;9226;47.858;9.594;2023-12-07T09:10:21;95495.19;;;18.79;33.23
18201;BME280;9226;47.858;9.594;2023-12-07T09:12:47;95498.66;;;18.48;30.77
18201;BME280;9226;47.858;9.594;2023-12-07T09:15:12;95490.88;;;19.09;31.85
18201;BME280;9226;47.858;9.594;2023-12-07T09:17:38;95494.19;;;18.88;31.57
18201;BME280;9226;47.858;9.594;2023-12-07T09:20:08;95494.72;;;19.38;30.48
18201;BME280;9226;47.858;9.594;2023-12-07T09:22:39;95485.72;;;19.00;30.99
18201;BME280;9226;47.858;9.594;2023-12-07T09:25:06;95492.94;;;19.30;30.93
18201;BME280;9226;47.858;9.594;2023-12-07T09:27:33;95491.44;;;19.28;30.21
18201;BME280;9226;47.858;9.594;2023-12-07T09:30:00;95496.72;;;19.44;28.94
18201;BME280;9226;47.858;9.594;2023-12-07T09:32:26;95510.59;;;20.02;31.46
18201;BME280;9226;47.858;9.594;2023-12-07T09:34:53;95508.81;;;20.33;29.09
18201;BME280;9226;47.858;9.594;2023-12-07T09:37:18;95500.72;;;20.48;30.12
18201;BME280;9226;47.858;9.594;2023-12-07T09:39:44;95506.47;;;20.45;29.07
18201;BME280;9226;47.858;9.594;2023-12-07T09:42:10;95512.47;;;20.85;29.43
18201;BME280;9226;47.858;9.594;2023-12-07T09:44:35;95506.47;;;20.45;29.23
18201;BME280;9226;47.858;9.594;2023-12-07T09:47:01;95497.75;;;20.28;28.73
18201;BME280;9226;47.858;9.594;2023-12-07T09:49:26;95496.66;;;19.52;27.46
18201;BME280;9226;47.858;9.594;2023-12-07T09:51:52;95482.88;;;19.24;29.00
18201;BME280;9226;47.858;9.594;2023-12-07T09:54:20;95487.56;;;19.30;28.50
18201;BME280;9226;47.858;9.594;2023-12-07T09:56:46;95479.59;;;19.14;28.85
18201;BME280;9226;47.858;9.594;2023-12-07T09:59:12;95477.66;;;19.00;28.40
18201;BME280;9226;47.858;9.594;2023-12-07T10:01:37;95482.63;;;19.11;28.82
18201;BME280;9226;47.858;9.594;2023-12-07T10:04:21;95481.03;;;18.93;28.53
18201;BME280;9226;47.858;9.594;2023-12-07T10:06:49;95480.81;;;19.03;28.86
18201;BME280;9226;47.858;9.594;2023-12-07T10:09:15;95472.75;;;19.34;30.03
18201;BME280;9226;47.858;9.594;2023-12-07T10:11:41;95470.47;;;19.23;28.44
18201;BME280;9226;47.858;9.594;2023-12-07T10:14:07;95454.41;;;19.07;29.35
18201;BME280;9226;47.858;9.594;2023-12-07T10:16:33;95455.56;;;19.12;28.79
18201;BME280;9226;47.858;9.594;2023-12-07T10:19:13;95448.88;;;18.21;28.53
18201;BME280;9226;47.858;9.594;2023-12-07T10:21:39;95442.06;;;18.50;29.22
18201;BME280;9226;47.858;9.594;2023-12-07T10:24:05;95442.50;;;18.70;30.18
18201;BME280;9226;47.858;9.594;2023-12-07T10:26:30;95447.06;;;17.80;30.38
18201;BME280;9226;47.858;9.594;2023-12-07T10:28:56;95437.31;;;18.12;30.99
18201;BME280;9226;47.858;9.594;2023-12-07T10:31:21;95438.78;;;18.31;29.72
18201;BME280;9226;47.858;9.594;2023-12-07T10:33:50;95433.66;;;18.05;28.86
18201;BME280;9226;47.858;9.594;2023-12-07T10:36:15;95429.97;;;18.06;29.56
18201;BME280;9226;47.858;9.594;2023-12-07T10:38:41;95431.66;;;17.90;29.72
18201;BME280;9226;47.858;9.594;2023-12-07T10:41:12;95423.25;;;18.02;29.16
18201;BME280;9226;47.858;9.594;2023-12-07T10:43:42;95417.22;;;17.50;29.01
18201;BME280;9226;47.858;9.594;2023-12-07T10:46:09;95414.34;;;16.35;29.58
18201;BME280;9226;47.858;9.594;2023-12-07T10:48:35;95419.88;;;16.42;30.78
18201;BME280;9226;47.858;9.594;2023-12-07T10:51:06;95411.97;;;16.32;30.91
18201;BME280;9226;47.858;9.594;2023-12-07T10:53:44;95406.91;;;16.63;30.19
18201;BME280;9226;47.858;9.594;2023-12-07T10:56:12;95403.59;;;15.93;30.62
18201;BME280;9226;47.858;9.594;2023-12-07T10:58:40;95401.00;;;15.83;30.93
18201;BME280;9226;47.858;9.594;2023-12-07T11:01:07;95396.97;;;15.34;31.10
18201;BME280;9226;47.858;9.594;2023-12-07T11:03:35;95399.38;;;15.90;32.42
18201;BME280;9226;47.858;9.594;2023-12-07T11:06:02;95393.22;;;15.27;32.46
18201;BME280;9226;47.858;9.594;2023-12-07T11:08:35;95391.06;;;15.49;32.84
18201;BME280;9226;47.858;9.594;2023-12-07T11:11:10;95390.72;;;15.44;32.63
18201;BME280;9226;47.858;9.594;2023-12-07T11:13:37;95384.53;;;15.25;32.69
18201;BME280;9226;47.858;9.594;2023-12-07T11:16:04;95379.03;;;15.27;33.18
18201;BME280;9226;47.858;9.594;2023-12-07T11:18:30;95379.63;;;15.65;32.96
18201;BME280;9226;47.858;9.594;2023-12-07T11:20:55;95378.31;;;14.98;33.34
18201;BME280;9226;47.858;9.594;2023-12-07T11:23:22;95373.63;;;15.18;33.48
18201;BME280;9226;47.858;9.594;2023-12-07T11:25:48;95373.22;;;15.31;33.41
18201;BME280;9226;47.858;9.594;2023-12-07T11:28:15;95367.44;;;15.18;33.46
18201;BME280;9226;47.858;9.594;2023-12-07T11:30:43;95369.00;;;15.02;32.95
18201;BME280;9226;47.858;9.594;2023-12-07T11:33:09;95367.34;;;14.10;33.32
18201;BME280;9226;47.858;9.594;2023-12-07T11:36:07;95357.13;;;13.78;33.75
18201;BME280;9226;47.858;9.594;2023-12-07T11:38:33;95349.19;;;14.23;33.88
18201;BME280;9226;47.858;9.594;2023-12-07T11:40:59;95348.84;;;13.33;34.45
18201;BME280;9226;47.858;9.594;2023-12-07T11:46:01;95347.34;;;12.72;35.45
18201;BME280;9226;47.858;9.594;2023-12-07T11:48:27;95349.13;;;12.42;35.51
18201;BME280;9226;47.858;9.594;2023-12-07T11:51:03;95346.66;;;12.60;36.45
18201;BME280;9226;47.858;9.594;2023-12-07T11:53:31;95346.88;;;12.47;36.04
18201;BME280;9226;47.858;9.594;2023-12-07T11:56:07;95341.72;;;12.75;36.52
18201;BME280;9226;47.858;9.594;2023-12-07T11:58:33;95337.19;;;12.07;36.83
18201;BME280;9226;47.858;9.594;2023-12-07T12:01:00;95337.94;;;12.48;37.19
18201;BME280;9226;47.858;9.594;2023-12-07T12:03:27;95325.75;;;12.75;36.62
18201;BME280;9226;47.858;9.594;2023-12-07T12:05:52;95322.94;;;12.28;36.49
18201;BME280;9226;47.858;9.594;2023-12-07T12:08:18;95322.78;;;12.20;37.39
18201;BME280;9226;47.858;9.594;2023-12-07T12:10:44;95322.31;;;11.95;37.79
18201;BME280;9226;47.858;9.594;2023-12-07T12:13:10;95317.75;;;11.76;38.26
18201;BME280;9226;47.858;9.594;2023-12-07T12:15:38;95306.56;;;11.41;38.51
18201;BME280;9226;47.858;9.594;2023-12-07T12:18:04;95311.66;;;10.93;39.31
18201;BME280;9226;47.858;9.594;2023-12-07T12:20:30;95316.84;;;10.83;39.76
18201;BME280;9226;47.858;9.594;2023-12-07T12:22:57;95301.91;;;10.61;39.95
18201;BME280;9226;47.858;9.594;2023-12-07T12:25:23;95313.72;;;10.36;40.60
18201;BME280;9226;47.858;9.594;2023-12-07T12:27:52;95304.75;;;10.04;40.84
18201;BME280;9226;47.858;9.594;2023-12-07T12:30:19;95294.41;;;10.01;41.26
18201;BME280;9226;47.858;9.594;2023-12-07T12:32:46;95285.22;;;9.50;41.81
18201;BME280;9226;47.858;9.594;2023-12-07T12:35:13;95275.72;;;9.48;42.48
18201;BME280;9226;47.858;9.594;2023-12-07T12:37:40;95270.06;;;9.18;43.20
18201;BME280;9226;47.858;9.594;2023-12-07T12:40:06;95275.00;;;8.78;43.01
18201;BME280;9226;47.858;9.594;2023-12-07T12:42:33;95258.50;;;8.74;43.29
18201;BME280;9226;47.858;9.594;2023-12-07T12:44:58;95266.44;;;8.03;44.51
18201;BME280;9226;47.858;9.594;2023-12-07T12:47:24;95251.72;;;7.88;45.19
18201;BME280;9226;47.858;9.594;2023-12-07T12:49:49;95253.75;;;8.08;44.84
18201;BME280;9226;47.858;9.594;2023-12-07T12:52:16;95246.72;;;7.96;44.97
18201;BME280;9226;47.858;9.594;2023-12-07T12:54:45;95233.13;;;7.65;46.01
18201;BME280;9226;47.858;9.594;2023-12-07T12:57:11;95235.97;;;7.62;46.09
18201;BME280;9226;47.858;9.594;2023-12-07T12:59:36;95237.50;;;7.53;46.43
18201;BME280;9226;47.858;9.594;2023-12-07T13:02:02;95236.78;;;7.51;46.76
18201;BME280;9226;47.858;9.594;2023-12-07T13:04:31;95220.94;;;7.51;46.92
18201;BME280;9226;47.858;9.594;2023-12-07T13:06:56;95221.44;;;7.56;46.69
18201;BME280;9226;47.858;9.594;2023-12-07T13:09:22;95219.34;;;7.49;46.44
18201;BME280;9226;47.858;9.594;2023-12-07T13:11:48;95225.88;;;7.56;46.19
18201;BME280;9226;47.858;9.594;2023-12-07T13:14:14;95236.50;;;7.30;46.34
18201;BME280;9226;47.858;9.594;2023-12-07T13:16:39;95228.38;;;6.96;46.68